Time;durP1;ratioP1;P1;durP2;ratioP2;P2;SDS_P1;SDS_P2;PMS_P1;PMS_P2;Temp;Humidity;BMP_temperature;BMP_pressure;BME280_temperature;BME280_humidity;BME280_pressure;Samples;Min_cycle;Max_cycle;Signal;HPM_P1;HPM_P2
2023/09/03 00:00:31;;;;;;;4.50;4.20;;;23.40;49.70;;;;;;5020587;28;20452;-74
2023/09/03 00:02:56;;;;;;;4.33;4.13;;;23.40;49.80;;;;;;5020131;28;20265;-74
2023/09/03 00:05:22;;;;;;;3.87;3.67;;;23.40;49.80;;;;;;5018172;28;20226;-75
2023/09/03 00:07:50;;;;;;;4.67;4.47;;;23.40;49.80;;;;;;5016989;28;20213;-74
2023/09/03 00:10:15;;;;;;;3.63;3.43;;;23.40;49.70;;;;;;5020183;28;20758;-74
2023/09/03 00:12:41;;;;;;;4.60;4.20;;;23.40;49.70;;;;;;5017913;28;20540;-74
2023/09/03 00:15:07;;;;;;;5.00;4.63;;;23.40;49.80;;;;;;5021303;28;20788;-74
2023/09/03 00:17:32;;;;;;;4.20;3.90;;;23.40;49.80;;;;;;5017273;28;20364;-74
2023/09/03 00:19:58;;;;;;;4.43;4.23;;;23.40;49.80;;;;;;5017496;28;20230;-74
2023/09/03 00:22:23;;;;;;;4.07;3.87;;;23.40;49.80;;;;;;5014486;28;20229;-74
2023/09/03 00:24:49;;;;;;;4.50;4.30;;;23.40;49.80;;;;;;5019881;28;20362;-74
2023/09/03 00:27:15;;;;;;;4.20;4.00;;;23.40;49.80;;;;;;5017947;28;20273;-74
2023/09/03 00:29:41;;;;;;;4.90;4.60;;;23.40;49.80;;;;;;5019138;28;20497;-74
2023/09/03 00:32:06;;;;;;;4.60;4.40;;;23.40;49.80;;;;;;5013577;28;20244;-74
2023/09/03 00:34:32;;;;;;;4.53;4.27;;;23.40;49.80;;;;;;5022424;28;21195;-74
2023/09/03 00:36:58;;;;;;;4.43;4.23;;;23.40;49.80;;;;;;5019633;28;20226;-74
2023/09/03 00:39:24;;;;;;;4.13;3.93;;;23.40;49.80;;;;;;5017131;28;20232;-74
2023/09/03 00:41:50;;;;;;;4.77;4.57;;;23.40;49.80;;;;;;5016535;28;20452;-74
2023/09/03 00:44:15;;;;;;;4.27;4.07;;;23.40;49.80;;;;;;5016161;28;20241;-74
2023/09/03 00:46:45;;;;;;;4.57;4.27;;;23.40;49.80;;;;;;5019984;28;20261;-74
2023/09/03 00:49:20;;;;;;;4.40;4.20;;;23.40;49.80;;;;;;5016713;28;20230;-74
2023/09/03 00:51:45;;;;;;;4.50;4.30;;;23.40;49.80;;;;;;5013468;28;20463;-74
2023/09/03 00:54:12;;;;;;;5.00;4.70;;;23.40;49.80;;;;;;5015597;28;20506;-74
2023/09/03 00:56:38;;;;;;;4.80;4.50;;;23.40;49.80;;;;;;5014786;28;20281;-74
2023/09/03 00:59:06;;;;;;;3.80;3.60;;;23.40;49.80;;;;;;5013973;28;20523;-73
2023/09/03 01:01:32;;;;;;;4.70;4.40;;;23.40;49.80;;;;;;5013733;28;20468;-74
2023/09/03 01:03:57;;;;;;;4.60;4.40;;;23.40;49.80;;;;;;5015062;28;20990;-74
2023/09/03 01:06:25;;;;;;;4.50;4.30;;;23.40;49.80;;;;;;5013816;28;20223;-73
2023/09/03 01:08:51;;;;;;;4.43;4.13;;;23.40;49.80;;;;;;5017866;28;20301;-73
2023/09/03 01:11:24;;;;;;;5.20;4.90;;;23.40;49.90;;;;;;5016915;28;20479;-74
2023/09/03 01:13:58;;;;;;;4.50;4.30;;;23.40;49.80;;;;;;5017287;28;20599;-74
2023/09/03 01:16:33;;;;;;;5.13;4.93;;;23.40;49.80;;;;;;5014948;28;20551;-73
2023/09/03 01:19:04;;;;;;;4.10;3.90;;;23.40;49.80;;;;;;5016995;28;20558;-73
2023/09/03 01:21:39;;;;;;;4.00;3.80;;;23.30;49.70;;;;;;5015290;28;20459;-74
2023/09/03 01:24:42;;;;;;;4.73;4.50;;;23.40;49.90;;;;;;5026773;28;20479;-73
2023/09/03 01:27:41;;;;;;;4.33;4.13;;;23.40;49.80;;;;;;5000813;28;21388;-73
2023/09/03 01:30:07;;;;;;;4.37;4.17;;;23.40;49.80;;;;;;5016035;28;20467;-74
2023/09/03 01:32:34;;;;;;;4.27;4.03;;;23.30;49.80;;;;;;5015279;28;20541;-74
2023/09/03 01:35:00;;;;;;;4.60;4.40;;;23.30;49.80;;;;;;5013052;28;20456;-74
2023/09/03 01:37:26;;;;;;;4.90;4.10;;;23.30;49.80;;;;;;5015834;28;20595;-73
2023/09/03 01:39:52;;;;;;;4.90;4.70;;;23.30;49.80;;;;;;5014643;28;20368;-71
2023/09/03 01:42:18;;;;;;;5.17;4.87;;;23.30;49.80;;;;;;5017293;28;20230;-74
2023/09/03 01:44:44;;;;;;;5.70;5.40;;;23.30;49.80;;;;;;5017823;28;20833;-74
2023/09/03 01:47:29;;;;;;;4.67;4.47;;;23.40;49.90;;;;;;5016454;28;20699;-74
2023/09/03 01:50:02;;;;;;;4.50;4.30;;;23.30;50.50;;;;;;5019302;28;20546;-74
2023/09/03 01:52:58;;;;;;;5.60;5.20;;;23.30;49.80;;;;;;5018533;28;20464;-74
2023/09/03 01:55:25;;;;;;;4.73;4.43;;;23.30;49.70;;;;;;5013821;28;20467;-74
2023/09/03 01:57:59;;;;;;;4.33;4.13;;;23.30;49.80;;;;;;5015111;28;20463;-73
2023/09/03 02:00:26;;;;;;;4.50;4.30;;;23.30;49.80;;;;;;5019141;28;20563;-74
2023/09/03 02:02:52;;;;;;;4.60;4.30;;;23.30;49.80;;;;;;5016000;28;20485;-73
2023/09/03 02:05:18;;;;;;;4.57;4.37;;;23.30;49.80;;;;;;5015779;28;20590;-74
2023/09/03 02:07:44;;;;;;;5.23;4.83;;;23.40;49.90;;;;;;5015574;28;20464;-74
2023/09/03 02:10:10;;;;;;;4.70;4.50;;;23.30;49.80;;;;;;5015855;28;21124;-74
2023/09/03 02:12:35;;;;;;;4.73;4.33;;;23.30;49.80;;;;;;5018481;28;20233;-74
2023/09/03 02:15:01;;;;;;;5.20;4.90;;;23.30;49.80;;;;;;5022905;28;20448;-74
2023/09/03 02:17:27;;;;;;;4.97;4.77;;;23.30;49.80;;;;;;5022636;28;20226;-74
2023/09/03 02:19:54;;;;;;;4.77;4.57;;;23.30;49.90;;;;;;5020553;28;20222;-73
2023/09/03 02:22:19;;;;;;;4.53;4.33;;;23.30;49.80;;;;;;5021149;28;20899;-74
2023/09/03 02:24:45;;;;;;;5.10;4.80;;;23.30;49.80;;;;;;5019418;28;20460;-74
2023/09/03 02:27:11;;;;;;;5.10;4.80;;;23.30;49.80;;;;;;5017023;28;23428;-74
2023/09/03 02:29:38;;;;;;;5.30;5.07;;;23.30;49.80;;;;;;5020035;28;20219;-74
2023/09/03 02:32:05;;;;;;;5.20;5.00;;;23.30;49.80;;;;;;5021298;28;21295;-74
2023/09/03 02:34:30;;;;;;;5.07;4.87;;;23.30;50.00;;;;;;5021438;28;20459;-74
2023/09/03 02:36:56;;;;;;;5.60;5.20;;;23.30;50.00;;;;;;5024176;28;20504;-74
2023/09/03 02:39:22;;;;;;;4.50;4.30;;;23.30;49.80;;;;;;5019997;28;20229;-72
2023/09/03 02:41:47;;;;;;;4.67;4.47;;;23.30;49.90;;;;;;5023497;28;20681;-74
2023/09/03 02:44:13;;;;;;;5.43;5.17;;;23.30;49.90;;;;;;5019247;28;20246;-74
2023/09/03 02:46:38;;;;;;;5.43;5.13;;;23.30;49.90;;;;;;5020434;28;20239;-74
2023/09/03 02:49:04;;;;;;;4.83;4.63;;;23.30;49.90;;;;;;5020209;28;20249;-74
2023/09/03 02:51:29;;;;;;;5.10;4.80;;;23.30;49.90;;;;;;5019677;28;20763;-74
2023/09/03 02:53:55;;;;;;;4.83;4.53;;;23.30;49.90;;;;;;5018468;28;20223;-73
2023/09/03 02:56:24;;;;;;;5.00;4.80;;;23.30;49.90;;;;;;5019409;28;20229;-75
2023/09/03 02:58:50;;;;;;;5.17;4.87;;;23.30;49.80;;;;;;5020927;28;21052;-75
2023/09/03 03:01:18;;;;;;;5.20;4.90;;;23.30;49.80;;;;;;5021894;28;20512;-74
2023/09/03 03:03:44;;;;;;;4.63;4.43;;;23.30;49.90;;;;;;5017455;28;20468;-75
2023/09/03 03:06:14;;;;;;;4.93;4.63;;;23.30;49.90;;;;;;5018013;28;20460;-76
2023/09/03 03:08:39;;;;;;;4.80;4.60;;;23.30;49.90;;;;;;5016638;28;20814;-74
2023/09/03 03:11:10;;;;;;;4.77;4.57;;;23.30;49.90;;;;;;5020870;28;20551;-76
2023/09/03 03:13:37;;;;;;;5.37;5.07;;;23.30;50.00;;;;;;5020181;28;20257;-75
2023/09/03 03:16:05;;;;;;;5.30;5.00;;;23.30;50.00;;;;;;5019488;28;20807;-75
2023/09/03 03:18:31;;;;;;;5.63;5.23;;;23.30;50.00;;;;;;5020158;28;20469;-74
2023/09/03 03:21:06;;;;;;;4.70;4.50;;;23.30;50.00;;;;;;5018813;28;20463;-73
2023/09/03 03:23:33;;;;;;;5.10;4.80;;;23.30;50.00;;;;;;5019052;28;20482;-74
2023/09/03 03:25:59;;;;;;;4.70;4.50;;;23.30;50.00;;;;;;5016659;28;20917;-73
2023/09/03 03:28:25;;;;;;;5.00;4.80;;;23.30;50.70;;;;;;5015336;28;20922;-73
2023/09/03 03:30:50;;;;;;;4.87;4.67;;;23.30;49.90;;;;;;5024753;28;20667;-73
2023/09/03 03:33:16;;;;;;;5.17;4.87;;;23.30;50.00;;;;;;5018608;28;21008;-73
2023/09/03 03:35:41;;;;;;;5.27;4.97;;;23.30;49.90;;;;;;5019786;28;20236;-73
2023/09/03 03:38:07;;;;;;;4.23;4.03;;;23.30;50.00;;;;;;5020671;28;20230;-74
2023/09/03 03:40:32;;;;;;;5.17;4.87;;;23.30;50.00;;;;;;5020666;28;22114;-74
2023/09/03 03:42:58;;;;;;;4.13;3.93;;;23.30;50.00;;;;;;5020784;28;20249;-74
2023/09/03 03:45:23;;;;;;;5.20;4.90;;;23.30;50.00;;;;;;5017507;28;21234;-75
2023/09/03 03:47:49;;;;;;;5.47;5.13;;;23.30;50.00;;;;;;5018261;28;20219;-75
2023/09/03 03:50:15;;;;;;;4.60;4.40;;;23.30;50.00;;;;;;5017934;28;20241;-75
2023/09/03 03:52:40;;;;;;;5.03;4.83;;;23.30;50.70;;;;;;5019213;28;20249;-75
2023/09/03 03:55:06;;;;;;;4.97;4.73;;;23.30;50.00;;;;;;5020469;28;20234;-75
2023/09/03 03:57:32;;;;;;;5.77;5.27;;;23.30;49.90;;;;;;5018754;28;20222;-75
2023/09/03 03:59:57;;;;;;;4.87;4.67;;;23.30;50.00;;;;;;5015517;28;20245;-75
2023/09/03 04:02:23;;;;;;;5.67;5.33;;;23.30;50.00;;;;;;5020232;28;20238;-74
2023/09/03 04:04:53;;;;;;;4.60;4.40;;;23.30;50.00;;;;;;5021287;28;20234;-75
2023/09/03 04:07:18;;;;;;;5.10;4.87;;;23.30;50.00;;;;;;5015682;28;20227;-74
2023/09/03 04:09:44;;;;;;;4.70;4.50;;;23.30;50.00;;;;;;5017024;28;20460;-75
2023/09/03 04:12:09;;;;;;;4.70;4.40;;;23.30;50.10;;;;;;5022538;28;20226;-75
2023/09/03 04:14:36;;;;;;;5.17;4.87;;;23.30;50.00;;;;;;5019239;28;20227;-74
2023/09/03 04:17:02;;;;;;;5.07;4.77;;;23.30;50.10;;;;;;5020418;28;20226;-74
2023/09/03 04:19:27;;;;;;;5.17;4.87;;;23.30;50.10;;;;;;5020203;28;20499;-75
2023/09/03 04:21:53;;;;;;;5.27;5.03;;;23.30;50.00;;;;;;5018501;28;20225;-74
2023/09/03 04:24:18;;;;;;;5.03;4.73;;;23.30;50.10;;;;;;5017776;28;20239;-75
2023/09/03 04:26:44;;;;;;;4.83;4.63;;;23.30;50.10;;;;;;5021284;28;20231;-75
2023/09/03 04:29:09;;;;;;;4.53;4.33;;;23.30;50.00;;;;;;5021912;28;20229;-74
2023/09/03 04:31:36;;;;;;;4.90;4.70;;;23.20;49.90;;;;;;5017136;28;20314;-71
2023/09/03 04:34:02;;;;;;;4.77;4.50;;;23.20;50.00;;;;;;5016034;28;20677;-73
2023/09/03 04:36:28;;;;;;;5.00;4.80;;;23.30;50.10;;;;;;5013073;28;21351;-73
2023/09/03 04:38:53;;;;;;;4.90;4.60;;;23.30;50.10;;;;;;5016026;28;20729;-73
2023/09/03 04:41:19;;;;;;;4.93;4.73;;;23.30;50.10;;;;;;5021020;28;20226;-74
2023/09/03 04:43:47;;;;;;;5.13;4.83;;;23.30;50.10;;;;;;5013403;28;20698;-74
2023/09/03 04:46:13;;;;;;;5.00;4.70;;;23.30;50.10;;;;;;5013223;28;20239;-74
2023/09/03 04:48:38;;;;;;;5.37;5.10;;;23.30;50.10;;;;;;5010357;28;20474;-74
2023/09/03 04:51:05;;;;;;;5.10;4.80;;;23.30;50.80;;;;;;5012384;28;20226;-74
2023/09/03 04:53:33;;;;;;;5.37;5.17;;;23.30;50.00;;;;;;5013396;28;20560;-74
2023/09/03 04:56:02;;;;;;;5.53;5.23;;;23.30;50.10;;;;;;5015969;28;20463;-75
2023/09/03 04:58:27;;;;;;;5.40;5.10;;;23.30;50.00;;;;;;5012850;28;20526;-74
2023/09/03 05:00:53;;;;;;;5.40;5.10;;;23.30;50.00;;;;;;5017874;28;20481;-75
2023/09/03 05:03:18;;;;;;;5.00;4.70;;;23.30;50.00;;;;;;5013059;28;20241;-75
2023/09/03 05:05:44;;;;;;;5.30;5.00;;;23.30;50.00;;;;;;5018987;28;20225;-74
2023/09/03 05:08:10;;;;;;;5.40;5.10;;;23.30;50.00;;;;;;5015216;28;20252;-74
2023/09/03 05:10:37;;;;;;;5.40;5.00;;;23.30;49.90;;;;;;5017052;28;20950;-75
2023/09/03 05:13:04;;;;;;;4.87;4.67;;;23.30;49.90;;;;;;5013386;28;20654;-75
2023/09/03 05:15:30;;;;;;;5.50;5.20;;;23.30;49.90;;;;;;5012750;28;20462;-74
2023/09/03 05:17:55;;;;;;;5.37;5.07;;;23.30;50.00;;;;;;5015017;28;20451;-74
2023/09/03 05:20:21;;;;;;;5.03;4.77;;;23.30;50.00;;;;;;5017071;28;20218;-74
2023/09/03 05:22:46;;;;;;;5.70;5.40;;;23.30;49.90;;;;;;5013674;28;20426;-74
2023/09/03 05:25:12;;;;;;;5.53;5.23;;;23.30;49.80;;;;;;5014049;28;20690;-74
2023/09/03 05:27:37;;;;;;;5.20;4.90;;;23.30;49.80;;;;;;5013557;28;20252;-74
2023/09/03 05:30:03;;;;;;;5.00;4.70;;;23.30;49.80;;;;;;5014810;28;20350;-74
2023/09/03 05:32:29;;;;;;;5.83;5.53;;;23.30;49.80;;;;;;5012505;28;20226;-74
2023/09/03 05:34:54;;;;;;;4.90;4.70;;;23.30;49.80;;;;;;5018679;28;20468;-74
2023/09/03 05:37:20;;;;;;;5.50;5.13;;;23.30;49.80;;;;;;5017068;28;20229;-78
2023/09/03 05:39:46;;;;;;;5.57;5.27;;;23.30;49.80;;;;;;5017579;28;20316;-73
2023/09/03 05:42:11;;;;;;;6.10;5.20;;;23.30;49.80;;;;;;5016363;28;20558;-74
2023/09/03 05:44:37;;;;;;;5.40;5.07;;;23.30;49.80;;;;;;5019834;28;20682;-74
2023/09/03 05:47:03;;;;;;;5.40;5.10;;;23.30;49.80;;;;;;5017328;28;20991;-72
2023/09/03 05:49:28;;;;;;;5.10;4.80;;;23.30;49.80;;;;;;5017373;28;20838;-76
2023/09/03 05:51:54;;;;;;;4.97;4.67;;;23.30;49.80;;;;;;5017917;28;20225;-76
2023/09/03 05:54:19;;;;;;;5.20;4.90;;;23.30;49.80;;;;;;5017083;28;20249;-73
2023/09/03 05:56:45;;;;;;;4.63;4.33;;;23.30;49.80;;;;;;5015775;28;20306;-74
2023/09/03 05:59:11;;;;;;;5.53;5.03;;;23.30;49.80;;;;;;5014835;28;20248;-74
2023/09/03 06:01:37;;;;;;;5.23;4.93;;;23.30;49.80;;;;;;5016975;28;20229;-76
2023/09/03 06:04:04;;;;;;;5.57;5.17;;;23.30;49.80;;;;;;5014297;28;20468;-73
2023/09/03 06:06:36;;;;;;;4.90;4.70;;;23.30;49.80;;;;;;5020680;28;22035;-73
2023/09/03 06:09:03;;;;;;;6.20;5.87;;;23.30;49.70;;;;;;5020472;28;20873;-73
2023/09/03 06:11:28;;;;;;;5.60;5.30;;;23.30;49.70;;;;;;5017991;28;20451;-75
2023/09/03 06:13:54;;;;;;;5.00;4.70;;;23.30;49.70;;;;;;5015038;28;20479;-73
2023/09/03 06:16:19;;;;;;;5.43;5.13;;;23.30;49.70;;;;;;5015993;28;20222;-73
2023/09/03 06:18:45;;;;;;;5.77;5.47;;;23.30;49.70;;;;;;5015423;28;20242;-71
2023/09/03 06:21:10;;;;;;;5.50;5.20;;;23.30;49.80;;;;;;5015099;28;20515;-71
2023/09/03 06:23:36;;;;;;;5.47;5.17;;;23.30;49.70;;;;;;5016394;28;20254;-71
2023/09/03 06:26:01;;;;;;;6.00;5.70;;;23.30;49.70;;;;;;5022506;28;20391;-71
2023/09/03 06:28:28;;;;;;;5.20;4.90;;;23.30;49.70;;;;;;5018408;28;20685;-72
2023/09/03 06:30:56;;;;;;;5.50;5.20;;;23.30;49.70;;;;;;5020773;28;20288;-71
2023/09/03 06:33:22;;;;;;;5.57;5.27;;;23.30;49.70;;;;;;5020457;28;20497;-73
2023/09/03 06:35:47;;;;;;;5.77;5.47;;;23.30;49.70;;;;;;5024339;28;21518;-73
2023/09/03 06:38:13;;;;;;;5.30;5.00;;;23.30;49.70;;;;;;5030642;28;20234;-71
2023/09/03 06:40:39;;;;;;;5.40;5.10;;;23.30;49.70;;;;;;5030643;28;20241;-71
2023/09/03 06:43:04;;;;;;;6.40;6.00;;;23.30;49.70;;;;;;5029615;28;20587;-71
2023/09/03 06:45:31;;;;;;;5.70;5.40;;;23.30;49.70;;;;;;5023209;28;20239;-75
2023/09/03 06:47:57;;;;;;;5.60;5.30;;;23.30;49.70;;;;;;5028582;28;20297;-72
2023/09/03 06:50:22;;;;;;;5.00;4.73;;;23.30;49.60;;;;;;5026309;28;20455;-72
2023/09/03 06:52:48;;;;;;;5.63;5.33;;;23.30;49.70;;;;;;5025005;28;20292;-72
2023/09/03 06:55:13;;;;;;;6.13;5.73;;;23.30;49.70;;;;;;5025794;28;20210;-73
2023/09/03 06:57:39;;;;;;;5.40;5.10;;;23.30;49.70;;;;;;5021287;28;20223;-73
2023/09/03 07:00:06;;;;;;;5.43;5.13;;;23.30;49.70;;;;;;5023522;28;20237;-73
2023/09/03 07:02:32;;;;;;;5.63;5.33;;;23.30;49.70;;;;;;5025230;28;20302;-73
2023/09/03 07:04:59;;;;;;;5.63;5.33;;;23.30;49.60;;;;;;5027727;28;20481;-73
2023/09/03 07:07:26;;;;;;;5.70;5.40;;;23.30;49.70;;;;;;5021612;28;20262;-73
2023/09/03 07:09:51;;;;;;;5.43;5.13;;;23.30;49.60;;;;;;5022787;28;20459;-73
2023/09/03 07:12:17;;;;;;;5.40;5.10;;;23.30;49.60;;;;;;5024276;28;20478;-74
2023/09/03 07:14:42;;;;;;;5.83;5.50;;;23.30;49.60;;;;;;5025577;28;20258;-72
2023/09/03 07:17:08;;;;;;;5.40;5.10;;;23.30;49.60;;;;;;5018856;28;20214;-73
2023/09/03 07:19:33;;;;;;;5.27;4.97;;;23.30;49.60;;;;;;5028575;28;20905;-72
2023/09/03 07:21:59;;;;;;;6.13;5.83;;;23.30;49.60;;;;;;5026756;28;20226;-73
2023/09/03 07:24:25;;;;;;;5.90;5.43;;;23.30;49.60;;;;;;5029462;28;20233;-73
2023/09/03 07:26:50;;;;;;;6.30;5.90;;;23.30;49.70;;;;;;5029739;28;20222;-73
2023/09/03 07:29:16;;;;;;;6.20;5.90;;;23.30;49.60;;;;;;5028498;28;20269;-73
2023/09/03 07:31:43;;;;;;;5.20;5.00;;;23.30;49.60;;;;;;5027878;28;20228;-73
2023/09/03 07:34:12;;;;;;;5.23;4.93;;;23.30;49.60;;;;;;5026799;28;20229;-73
2023/09/03 07:36:38;;;;;;;6.43;6.13;;;23.30;49.60;;;;;;5028137;28;20460;-73
2023/09/03 07:39:05;;;;;;;6.00;5.70;;;23.30;49.60;;;;;;5023880;28;21563;-71
2023/09/03 07:41:31;;;;;;;6.40;5.97;;;23.30;49.60;;;;;;5024969;28;20225;-73
2023/09/03 07:43:57;;;;;;;6.90;6.33;;;23.30;49.60;;;;;;5028246;28;20463;-77
2023/09/03 07:46:22;;;;;;;6.90;6.47;;;23.40;49.70;;;;;;5029902;28;20911;-68
2023/09/03 07:48:47;;;;;;;10.43;5.83;;;23.40;49.60;;;;;;5028152;28;20218;-71
2023/09/03 07:51:15;;;;;;;7.07;6.37;;;23.40;49.60;;;;;;5027272;28;20794;-73
2023/09/03 07:53:41;;;;;;;8.33;6.43;;;23.40;49.60;;;;;;5017075;28;21050;-72
2023/09/03 07:56:06;;;;;;;7.60;7.00;;;23.40;49.60;;;;;;5024845;28;20657;-73
2023/09/03 07:58:32;;;;;;;6.00;5.70;;;23.40;49.70;;;;;;5030439;28;20463;-77
2023/09/03 08:00:57;;;;;;;7.13;6.50;;;23.40;49.70;;;;;;5025639;28;20310;-73
2023/09/03 08:03:31;;;;;;;6.23;5.80;;;23.40;49.70;;;;;;5022848;28;20325;-77
2023/09/03 08:05:58;;;;;;;6.43;6.03;;;23.40;49.80;;;;;;5025824;28;20241;-74
2023/09/03 08:08:24;;;;;;;7.47;6.37;;;23.40;49.80;;;;;;5024539;28;20547;-77
2023/09/03 08:10:49;;;;;;;6.40;5.90;;;23.40;49.80;;;;;;5028378;28;20820;-76
2023/09/03 08:13:15;;;;;;;8.00;7.30;;;23.40;49.80;;;;;;5028164;28;20838;-75
2023/09/03 08:15:40;;;;;;;6.60;6.17;;;23.40;49.80;;;;;;5025789;28;20210;-74
2023/09/03 08:18:06;;;;;;;6.47;5.83;;;23.40;49.80;;;;;;5024307;28;20258;-77
2023/09/03 08:20:31;;;;;;;6.57;6.17;;;23.40;49.80;;;;;;5028107;28;20222;-75
2023/09/03 08:22:57;;;;;;;6.57;6.07;;;23.40;49.90;;;;;;5022979;28;21128;-75
2023/09/03 08:25:22;;;;;;;6.17;5.77;;;23.40;49.90;;;;;;5023819;28;20781;-76
2023/09/03 08:27:48;;;;;;;6.30;5.90;;;23.40;49.90;;;;;;5027961;28;20265;-74
2023/09/03 08:30:14;;;;;;;7.00;6.43;;;23.40;49.90;;;;;;5030153;28;20253;-74
2023/09/03 08:32:39;;;;;;;6.83;6.47;;;23.40;49.90;;;;;;5025116;28;20860;-75
2023/09/03 08:35:06;;;;;;;6.47;6.07;;;23.40;50.00;;;;;;5024789;28;20227;-76
2023/09/03 08:37:32;;;;;;;7.03;6.63;;;23.30;49.80;;;;;;5025967;28;20290;-76
2023/09/03 08:39:57;;;;;;;6.50;6.00;;;23.40;50.00;;;;;;5024271;28;20469;-74
2023/09/03 08:42:24;;;;;;;6.50;6.10;;;23.40;50.00;;;;;;5024632;28;20236;-74
2023/09/03 08:44:59;;;;;;;5.90;5.60;;;23.30;49.90;;;;;;5024020;28;20234;-76
2023/09/03 08:47:24;;;;;;;5.70;5.40;;;23.40;50.00;;;;;;5025136;28;20463;-75
2023/09/03 08:49:50;;;;;;;5.77;5.37;;;23.30;49.90;;;;;;5027389;28;20455;-74
2023/09/03 08:52:16;;;;;;;5.60;5.30;;;23.30;49.90;;;;;;5021671;28;20684;-74
2023/09/03 08:54:42;;;;;;;5.77;5.27;;;23.30;49.80;;;;;;5025571;28;20473;-74
2023/09/03 08:57:09;;;;;;;6.00;5.67;;;23.30;49.80;;;;;;5024091;28;20231;-74
2023/09/03 08:59:35;;;;;;;5.40;5.10;;;23.30;49.90;;;;;;5027356;28;20312;-74
2023/09/03 09:02:01;;;;;;;6.50;6.00;;;23.40;50.00;;;;;;5024701;28;20950;-77
2023/09/03 09:04:29;;;;;;;6.40;5.97;;;23.40;49.90;;;;;;5028019;28;20562;-76
2023/09/03 09:06:56;;;;;;;6.87;6.37;;;23.40;49.90;;;;;;5021383;28;20695;-76
2023/09/03 09:09:23;;;;;;;6.73;6.27;;;23.40;49.90;;;;;;5026895;28;21439;-72
2023/09/03 09:12:00;;;;;;;5.80;5.43;;;23.40;50.00;;;;;;5021373;28;20463;-77
2023/09/03 09:14:39;;;;;;;5.70;5.40;;;23.40;50.00;;;;;;5016147;28;21399;-75
2023/09/03 09:17:12;;;;;;;6.13;5.73;;;23.40;49.90;;;;;;5017956;28;20459;-75
2023/09/03 09:19:38;;;;;;;6.00;5.60;;;23.40;49.90;;;;;;5024127;28;20461;-77
2023/09/03 09:22:04;;;;;;;5.30;5.00;;;23.40;50.00;;;;;;5023311;28;20463;-74
2023/09/03 09:24:30;;;;;;;6.13;5.63;;;23.40;50.00;;;;;;5023969;28;20659;-77
2023/09/03 09:27:16;;;;;;;5.53;5.23;;;23.40;50.00;;;;;;5017460;28;22022;-74
2023/09/03 09:29:43;;;;;;;6.07;5.77;;;23.40;49.90;;;;;;5023119;28;20593;-74
2023/09/03 09:32:19;;;;;;;5.53;5.23;;;23.40;50.00;;;;;;5023436;28;20611;-74
2023/09/03 09:34:46;;;;;;;6.13;5.73;;;23.40;50.00;;;;;;5022710;28;20486;-73
2023/09/03 09:37:13;;;;;;;6.00;5.70;;;23.40;50.00;;;;;;5019384;28;20518;-77
2023/09/03 09:39:46;;;;;;;5.50;5.30;;;23.40;50.00;;;;;;5020064;28;21523;-73
2023/09/03 09:42:13;;;;;;;5.70;5.40;;;23.40;50.00;;;;;;5023158;28;23583;-79
2023/09/03 09:45:05;;;;;;;5.83;5.53;;;23.40;50.00;;;;;;5026965;28;20537;-71
2023/09/03 09:47:31;;;;;;;5.90;5.50;;;23.40;50.00;;;;;;5021206;28;20569;-80
2023/09/03 09:49:56;;;;;;;6.00;5.50;;;23.40;50.00;;;;;;5027429;28;21889;-73
2023/09/03 09:52:22;;;;;;;5.70;5.40;;;23.40;50.00;;;;;;5019678;28;20451;-75
2023/09/03 09:54:48;;;;;;;5.30;5.00;;;23.40;50.00;;;;;;5020692;28;20329;-72
2023/09/03 09:57:16;;;;;;;6.00;5.70;;;23.40;50.00;;;;;;5021314;28;20222;-72
2023/09/03 09:59:42;;;;;;;6.00;5.70;;;23.40;50.10;;;;;;5013807;28;20498;-76
2023/09/03 10:02:12;;;;;;;6.07;5.70;;;23.40;49.90;;;;;;5003249;28;20512;-74
2023/09/03 10:04:43;;;;;;;5.70;5.40;;;23.40;50.00;;;;;;5003653;28;20478;-71
2023/09/03 10:07:09;;;;;;;5.40;5.10;;;23.40;50.00;;;;;;5011298;28;20573;-70
2023/09/03 10:09:37;;;;;;;6.13;5.83;;;23.40;50.10;;;;;;5015568;28;21610;-81
2023/09/03 10:12:03;;;;;;;6.57;6.17;;;23.40;49.30;;;;;;5015259;28;20506;-81
2023/09/03 10:14:29;;;;;;;5.40;5.10;;;23.40;50.80;;;;;;5015971;28;20460;-84
2023/09/03 10:16:56;;;;;;;5.47;5.17;;;23.40;50.00;;;;;;5015625;28;20538;-85
2023/09/03 10:19:26;;;;;;;5.57;5.27;;;23.40;49.90;;;;;;5015801;28;20222;-70
2023/09/03 10:21:59;;;;;;;5.03;4.80;;;23.40;49.90;;;;;;5013434;28;20447;-72
2023/09/03 10:24:25;;;;;;;5.07;4.80;;;23.40;49.90;;;;;;5011680;28;20479;-78
2023/09/03 10:27:04;;;;;;;5.53;5.23;;;23.40;50.00;;;;;;5015702;28;20496;-71
2023/09/03 10:29:32;;;;;;;5.50;5.20;;;23.40;49.90;;;;;;5015082;28;20474;-74
2023/09/03 10:32:00;;;;;;;4.90;4.60;;;23.40;50.00;;;;;;5012590;28;20464;-81
2023/09/03 10:34:26;;;;;;;5.50;5.20;;;23.40;50.00;;;;;;5020326;28;20475;-71
2023/09/03 10:37:10;;;;;;;5.40;5.10;;;23.40;50.00;;;;;;5019082;28;20552;-72
2023/09/03 10:39:38;;;;;;;5.30;5.00;;;23.40;49.90;;;;;;5019838;28;20494;-75
2023/09/03 10:42:16;;;;;;;5.60;5.30;;;23.40;49.90;;;;;;5016511;28;20545;-70
2023/09/03 10:44:56;;;;;;;4.87;4.67;;;23.40;50.00;;;;;;5018148;28;20974;-76
2023/09/03 10:47:22;;;;;;;5.20;4.90;;;23.40;49.90;;;;;;5017835;28;20498;-81
2023/09/03 10:49:49;;;;;;;4.73;4.50;;;23.40;49.90;;;;;;5016485;28;20558;-71
2023/09/03 10:52:39;;;;;;;5.70;5.40;;;23.40;49.90;;;;;;5017148;28;20272;-71
2023/09/03 10:55:21;;;;;;;5.00;4.80;;;23.40;49.90;;;;;;5019358;28;20473;-83
2023/09/03 10:57:48;;;;;;;4.73;4.43;;;23.40;49.90;;;;;;5014544;28;20539;-80
2023/09/03 11:00:23;;;;;;;5.37;5.07;;;23.40;49.90;;;;;;5015894;28;21022;-78
2023/09/03 11:02:49;;;;;;;5.20;4.90;;;23.40;49.90;;;;;;5022288;28;20462;-78
2023/09/03 11:05:26;;;;;;;4.50;4.30;;;23.40;49.80;;;;;;5012602;28;20558;-81
2023/09/03 11:08:21;;;;;;;5.00;4.70;;;23.40;49.90;;;;;;5009774;28;20230;-77
2023/09/03 11:10:48;;;;;;;4.93;4.63;;;23.40;49.90;;;;;;5014854;28;21347;-77
2023/09/03 11:13:13;;;;;;;4.83;4.60;;;23.40;49.90;;;;;;5011742;28;21244;-73
2023/09/03 11:15:48;;;;;;;4.23;4.03;;;23.40;49.90;;;;;;5017001;28;21240;-75
2023/09/03 11:18:18;;;;;;;4.87;4.60;;;23.40;49.80;;;;;;5017141;28;20593;-71
2023/09/03 11:20:44;;;;;;;5.13;4.73;;;23.50;49.90;;;;;;5009954;28;20538;-70
2023/09/03 11:23:10;;;;;;;5.00;4.70;;;23.40;49.80;;;;;;5012239;28;21031;-80
2023/09/03 11:25:40;;;;;;;4.77;4.43;;;23.50;49.90;;;;;;5041796;28;20222;-80
2023/09/03 11:28:13;;;;;;;5.50;5.20;;;23.40;49.80;;;;;;5010510;28;20223;-81
2023/09/03 11:30:43;;;;;;;5.60;5.30;;;23.40;49.90;;;;;;5014215;28;20766;-77
2023/09/03 11:33:25;;;;;;;4.60;4.40;;;23.50;49.90;;;;;;5013898;28;20463;-74
2023/09/03 11:35:51;;;;;;;4.53;4.33;;;23.40;49.80;;;;;;5016139;28;20513;-76
2023/09/03 11:38:16;;;;;;;4.80;4.60;;;23.40;49.80;;;;;;5017132;28;20467;-79
2023/09/03 11:40:42;;;;;;;4.63;4.43;;;23.40;49.80;;;;;;5016236;28;20226;-75
2023/09/03 11:43:09;;;;;;;5.23;5.00;;;23.40;49.80;;;;;;5012702;28;20570;-78
2023/09/03 11:45:35;;;;;;;4.57;4.37;;;23.50;49.90;;;;;;5013905;28;20234;-72
2023/09/03 11:48:06;;;;;;;4.70;4.50;;;23.50;49.90;;;;;;5012098;28;20582;-73
2023/09/03 11:50:32;;;;;;;4.67;4.47;;;23.50;49.90;;;;;;5012301;28;20463;-75
2023/09/03 11:53:00;;;;;;;4.90;4.70;;;23.40;49.80;;;;;;5013539;28;20471;-79
2023/09/03 11:55:40;;;;;;;4.93;4.73;;;23.40;49.80;;;;;;5011068;28;20250;-76
2023/09/03 11:58:08;;;;;;;4.80;4.50;;;23.50;49.90;;;;;;5015964;28;20574;-70
2023/09/03 12:00:35;;;;;;;4.77;4.47;;;23.40;49.80;;;;;;5015688;28;20491;-77
2023/09/03 12:03:01;;;;;;;4.83;4.63;;;23.40;49.70;;;;;;5017251;28;20471;-74
2023/09/03 12:05:28;;;;;;;4.43;4.23;;;23.40;49.70;;;;;;5014341;28;20451;-75
2023/09/03 12:07:59;;;;;;;5.17;4.87;;;23.40;49.70;;;;;;5014173;28;21008;-78
2023/09/03 12:10:24;;;;;;;4.40;4.20;;;23.40;49.70;;;;;;5014039;28;20475;-77
2023/09/03 12:12:50;;;;;;;4.50;4.30;;;23.50;50.60;;;;;;5017018;28;21152;-76
2023/09/03 12:15:20;;;;;;;5.10;4.90;;;23.40;49.70;;;;;;5010551;28;20222;-80
2023/09/03 12:17:46;;;;;;;4.60;4.40;;;23.50;49.80;;;;;;5014601;28;20227;-72
2023/09/03 12:20:45;;;;;;;4.73;4.43;;;23.40;49.70;;;;;;5014647;28;21075;-71
2023/09/03 12:23:20;;;;;;;4.57;4.37;;;23.50;49.80;;;;;;5012611;28;20467;-76
2023/09/03 12:25:46;;;;;;;4.47;4.20;;;23.50;49.80;;;;;;5012963;28;21050;-75
2023/09/03 12:28:12;;;;;;;4.67;4.47;;;23.40;49.70;;;;;;5014476;28;20489;-79
2023/09/03 12:30:57;;;;;;;4.83;4.60;;;23.50;49.80;;;;;;5014352;28;20700;-78
2023/09/03 12:33:26;;;;;;;4.50;4.30;;;23.40;49.70;;;;;;5014054;28;20471;-73
2023/09/03 12:36:12;;;;;;;4.20;4.00;;;23.40;50.50;;;;;;5015074;28;20472;-74
2023/09/03 12:38:53;;;;;;;4.20;4.00;;;23.40;49.70;;;;;;5012769;28;20482;-71
2023/09/03 12:41:37;;;;;;;4.20;4.00;;;23.40;49.70;;;;;;5016138;28;20436;-74
2023/09/03 12:44:07;;;;;;;4.40;4.20;;;23.40;49.80;;;;;;5004271;28;20475;-76
2023/09/03 12:46:34;;;;;;;4.40;4.20;;;23.40;49.70;;;;;;5004842;28;21733;-74
2023/09/03 12:49:02;;;;;;;4.20;4.00;;;23.40;49.70;;;;;;5008870;28;20460;-74
2023/09/03 12:51:33;;;;;;;4.20;4.00;;;23.50;49.80;;;;;;5008938;28;20558;-75